Malaysia Virtual Airlines Airport Information Service

Narita International Airport

ICAO: RJAA Country: Japan
Latitude: 35.7647 Longitude: 140.386
Latest Arrival : MH80 (WBKK-RJAA) Latest Departure : MHJUMP (RJAA-WMKK)


WX CaptureLIVE
Data provided by noaa.gov | Fetched at 20:46:19

METAR : RJAA 122030Z 02004KT 9999 -RA FEW015 BKN050 15/14 Q1019 BECMG 10005KT RMK 1CU015 7SC050 A3009

TAF : RJAA 122000Z 1220/1400 04004KT 8000 -RA FEW008 BKN015 BECMG 1221/1223 10010KT BECMG 1306/1309 36006KT FEW005 BKN008 BECMG 1321/1400 FEW008 BKN015


Runway Data for RJAA
Data provided by openaviationdata.com

Runway ID Mag Var Hdg Length Elevation Surface ILS Freq ILS Id ILS Slope
16L -7 156° 8202 ft 135 ft Asphalt 110.7 ITM 3
16R -7 156° 13132 ft 135 ft Asphalt 111.5 IKF 3
34L -7 336° 13132 ft 135 ft Asphalt 111.9 IYQ 3
34R -7 336° 8202 ft 135 ft Asphalt 110.9 ITJ 3

Narita International Airport, Japan
Use only for reference purposes



Not for navigational purposes.